Time;durP1;ratioP1;P1;durP2;ratioP2;P2;SDS_P1;SDS_P2;PMS_P1;PMS_P2;Temp;Humidity;BMP_temperature;BMP_pressure;BME280_temperature;BME280_humidity;BME280_pressure;Samples;Min_cycle;Max_cycle;Signal;HPM_P1;HPM_P2
2021/07/10 00:00:12;;;;;;;;;;;;;;;22.89;62.56;101052.97;5101303;28;1832;-40
2021/07/10 00:02:38;;;;;;;;;;;;;;;22.63;62.89;101041.09;5096039;28;1909;-41
2021/07/10 00:05:06;;;;;;;;;;;;;;;22.51;62.69;101045.00;5101951;28;956;-40
2021/07/10 00:07:33;;;;;;;;;;;;;;;22.54;63.03;101044.72;5100292;28;1558;-40
2021/07/10 00:10:00;;;;;;;;;;;;;;;22.73;62.18;101038.31;5103732;28;1811;-40
2021/07/10 00:12:26;;;;;;;;;;;;;;;22.69;62.31;101034.25;5114474;28;1923;-41
2021/07/10 00:14:53;;;;;;;;;;;;;;;22.67;62.32;101036.25;5093265;28;2256;-40
2021/07/10 00:17:21;;;;;;;;;;;;;;;22.83;61.87;101032.88;5104651;28;1086;-40
2021/07/10 00:19:52;;;;;;;;;;;;;;;22.90;61.75;101033.97;5103160;28;1702;-40
2021/07/10 00:22:18;;;;;;;;;;;;;;;22.90;61.59;101044.75;5097939;28;1931;-40
2021/07/10 00:24:45;;;;;;;;;;;;;;;22.80;62.01;101031.34;5105080;28;1996;-40
2021/07/10 00:27:12;;;;;;;;;;;;;;;22.56;62.62;101033.75;5114592;28;1971;-41
2021/07/10 00:29:38;;;;;;;;;;;;;;;22.42;63.00;101037.81;5104207;28;1792;-40
2021/07/10 00:32:05;;;;;;;;;;;;;;;22.37;62.67;101029.38;5100431;28;2060;-40
2021/07/10 00:34:33;;;;;;;;;;;;;;;22.38;62.83;101026.53;5095527;28;1834;-40
2021/07/10 00:36:59;;;;;;;;;;;;;;;22.49;62.20;101032.69;5100860;28;2274;-40
2021/07/10 00:39:26;;;;;;;;;;;;;;;22.54;61.88;101033.06;5099192;28;1721;-40
2021/07/10 00:41:52;;;;;;;;;;;;;;;;;;5091637;28;1763;-40
2021/07/10 00:44:19;;;;;;;;;;;;;;;22.38;62.18;101017.56;5100533;28;1981;-41
2021/07/10 00:46:45;;;;;;;;;;;;;;;22.39;62.73;101024.69;5096961;28;1852;-40
2021/07/10 00:49:13;;;;;;;;;;;;;;;22.27;63.11;101033.97;5098668;28;1918;-40
2021/07/10 00:51:41;;;;;;;;;;;;;;;22.31;62.87;101027.28;5101468;28;1806;-40
2021/07/10 00:54:07;;;;;;;;;;;;;;;22.45;62.15;101032.16;5101621;28;2042;-41
2021/07/10 00:56:34;;;;;;;;;;;;;;;22.57;61.59;101020.16;5102085;28;1715;-40
2021/07/10 00:59:00;;;;;;;;;;;;;;;22.73;61.36;101011.38;5100231;28;2313;-40
2021/07/10 01:01:27;;;;;;;;;;;;;;;22.80;61.16;101006.19;5104168;28;2069;-40
2021/07/10 01:03:53;;;;;;;;;;;;;;;22.85;61.14;101006.59;5103674;28;1962;-40
2021/07/10 01:06:20;;;;;;;;;;;;;;;22.79;61.09;100997.28;5095924;28;1637;-40
2021/07/10 01:08:48;;;;;;;;;;;;;;;22.74;61.03;100994.22;5106896;28;1714;-40
2021/07/10 01:11:15;;;;;;;;;;;;;;;22.52;62.08;100983.88;5106782;28;928;-40
2021/07/10 01:13:41;;;;;;;;;;;;;;;22.31;61.76;100994.94;5106772;28;1618;-40
2021/07/10 01:16:08;;;;;;;;;;;;;;;22.26;62.03;100994.53;5104521;28;1847;-40
2021/07/10 01:18:35;;;;;;;;;;;;;;;22.15;62.31;100993.72;5103252;28;1789;-41
2021/07/10 01:21:03;;;;;;;;;;;;;;;22.05;62.92;100993.78;5097491;28;1895;-40
2021/07/10 01:23:29;;;;;;;;;;;;;;;22.19;62.15;100978.97;5102072;28;1910;-40
2021/07/10 01:25:56;;;;;;;;;;;;;;;22.37;61.74;100967.41;5106769;28;1030;-41
2021/07/10 01:28:22;;;;;;;;;;;;;;;22.44;61.53;100976.53;5109126;28;1920;-40
2021/07/10 01:30:49;;;;;;;;;;;;;;;22.42;61.84;100976.72;5103315;28;1553;-40
2021/07/10 01:33:16;;;;;;;;;;;;;;;22.41;61.84;100985.78;5097088;28;1924;-40
2021/07/10 01:35:42;;;;;;;;;;;;;;;22.49;61.07;100985.03;5097706;28;1652;-40
2021/07/10 01:38:11;;;;;;;;;;;;;;;22.58;60.85;100978.72;5095712;28;1747;-40
2021/07/10 01:40:39;;;;;;;;;;;;;;;22.64;60.67;100972.72;5105276;28;1075;-40
2021/07/10 01:43:05;;;;;;;;;;;;;;;22.71;60.93;100966.72;5111021;28;1938;-40
2021/07/10 01:45:32;;;;;;;;;;;;;;;22.77;60.76;100976.88;5096321;28;1907;-40
2021/07/10 01:47:59;;;;;;;;;;;;;;;22.76;60.69;100964.38;5096824;28;1717;-40
2021/07/10 01:50:25;;;;;;;;;;;;;;;22.71;60.77;100964.84;5102414;28;1685;-41
2021/07/10 01:52:52;;;;;;;;;;;;;;;22.65;60.54;100952.00;5098178;28;1849;-41
2021/07/10 01:55:20;;;;;;;;;;;;;;;22.72;60.70;100954.91;5099759;28;1894;-40
2021/07/10 01:57:47;;;;;;;;;;;;;;;22.70;60.37;100965.00;5095067;28;1928;-40
2021/07/10 02:02:55;;;;;;;;;;;;;;;22.72;60.51;100960.28;5014386;22;1747;-40
2021/07/10 02:05:23;;;;;;;;;;;;;;;22.64;60.01;100951.16;4998548;28;1965;-41
2021/07/10 02:07:49;;;;;;;;;;;;;;;22.72;60.58;100941.44;5002816;28;1949;-40
2021/07/10 02:10:17;;;;;;;;;;;;;;;22.66;60.27;100936.66;5003032;28;1778;-40
2021/07/10 02:12:46;;;;;;;;;;;;;;;22.73;60.82;100962.84;5002035;28;1694;-40
2021/07/10 02:15:13;;;;;;;;;;;;;;;22.71;60.73;100961.31;4993820;28;1591;-40
2021/07/10 02:17:41;;;;;;;;;;;;;;;22.63;60.22;100965.63;5001588;28;1543;-40
2021/07/10 02:20:15;;;;;;;;;;;;;;;22.61;60.44;100956.84;5003837;28;1249;-40
2021/07/10 02:22:49;;;;;;;;;;;;;;;22.55;60.35;100962.84;4993382;28;1074;-40
2021/07/10 02:25:16;;;;;;;;;;;;;;;22.56;60.60;100955.59;5000805;28;2154;-40
2021/07/10 02:27:43;;;;;;;;;;;;;;;22.62;60.30;100963.94;5008842;28;2110;-40
2021/07/10 02:30:13;;;;;;;;;;;;;;;22.64;60.13;100966.47;5001631;28;1562;-40
2021/07/10 02:32:40;;;;;;;;;;;;;;;22.68;60.34;100967.88;5009881;28;1711;-41
2021/07/10 02:35:16;;;;;;;;;;;;;;;22.69;60.17;100974.09;5007758;28;1754;-40
2021/07/10 02:37:46;;;;;;;;;;;;;;;22.63;60.67;100983.66;4993218;28;1071;-40
2021/07/10 02:40:15;;;;;;;;;;;;;;;22.39;60.86;100974.31;5011584;28;2360;-41
2021/07/10 02:45:29;;;;;;;;;;;;;;;22.22;61.00;100973.28;4993510;28;2306;-40
2021/07/10 02:47:59;;;;;;;;;;;;;;;22.29;60.96;100999.66;4994540;28;1899;-41
2021/07/10 02:50:29;;;;;;;;;;;;;;;22.43;61.00;100996.44;5010900;28;1742;-40
2021/07/10 02:53:01;;;;;;;;;;;;;;;22.37;60.67;100999.72;4997957;28;1848;-40
2021/07/10 02:55:32;;;;;;;;;;;;;;;22.31;60.53;100986.88;5012202;28;1883;-40
2021/07/10 02:58:07;;;;;;;;;;;;;;;22.41;60.69;100998.44;5008923;28;2245;-40
2021/07/10 03:00:39;;;;;;;;;;;;;;;22.44;60.19;100990.03;5010642;28;1885;-40
2021/07/10 03:03:08;;;;;;;;;;;;;;;22.36;60.84;100990.81;5009549;28;1599;-40
2021/07/10 03:05:38;;;;;;;;;;;;;;;22.36;60.69;100987.25;5010192;28;2312;-40
2021/07/10 03:08:13;;;;;;;;;;;;;;;22.43;60.50;101004.50;5010399;28;1672;-40
2021/07/10 03:10:43;;;;;;;;;;;;;;;22.45;60.49;100978.25;4996991;28;1848;-40
2021/07/10 03:13:10;;;;;;;;;;;;;;;22.38;60.40;100983.41;5005123;28;1768;-40
2021/07/10 03:15:41;;;;;;;;;;;;;;;22.39;60.21;100968.09;4993076;28;1810;-40
2021/07/10 03:18:08;;;;;;;;;;;;;;;22.23;60.47;100985.75;5002868;28;1836;-40
2021/07/10 03:20:39;;;;;;;;;;;;;;;22.18;60.64;100982.66;5011155;28;1656;-40
2021/07/10 03:23:06;;;;;;;;;;;;;;;22.35;60.57;100993.66;5002354;28;1784;-40
2021/07/10 03:25:54;;;;;;;;;;;;;;;22.37;60.19;100986.25;4992683;28;1906;-40
2021/07/10 03:28:20;;;;;;;;;;;;;;;22.36;60.55;100989.94;5000243;28;1802;-40
2021/07/10 03:30:54;;;;;;;;;;;;;;;22.41;60.67;100991.19;5010420;28;1749;-40
2021/07/10 03:33:22;;;;;;;;;;;;;;;22.43;60.28;100999.13;4993070;28;1793;-41
2021/07/10 03:35:51;;;;;;;;;;;;;;;22.41;60.51;100983.09;4997655;28;1710;-40
2021/07/10 03:38:20;;;;;;;;;;;;;;;22.21;60.68;100995.81;5009005;28;1829;-41
2021/07/10 03:40:50;;;;;;;;;;;;;;;22.07;61.79;100985.56;5012509;28;1031;-40
2021/07/10 03:43:18;;;;;;;;;;;;;;;22.22;61.01;100994.84;5006819;28;2138;-40
2021/07/10 03:45:55;;;;;;;;;;;;;;;22.35;60.82;100990.97;5006463;28;1973;-40
2021/07/10 03:48:27;;;;;;;;;;;;;;;22.44;60.35;100993.59;5005844;28;1536;-40
2021/07/10 03:51:04;;;;;;;;;;;;;;;22.47;60.44;100991.59;5013776;28;2269;-39
2021/07/10 03:53:33;;;;;;;;;;;;;;;22.53;60.06;100991.81;4997454;28;1750;-40
2021/07/10 03:56:01;;;;;;;;;;;;;;;22.58;60.94;100992.22;4996571;28;1070;-40
2021/07/10 03:58:28;;;;;;;;;;;;;;;22.37;61.58;100986.25;5005213;28;1752;-40
2021/07/10 04:00:56;;;;;;;;;;;;;;;22.57;60.49;100993.19;5015507;28;1134;-40
2021/07/10 04:03:23;;;;;;;;;;;;;;;22.47;61.11;100984.34;5007021;28;2909;-41
2021/07/10 04:06:11;;;;;;;;;;;;;;;22.52;60.71;100983.88;5002420;28;1973;-40
2021/07/10 04:08:37;;;;;;;;;;;;;;;22.41;61.03;100987.66;5005133;28;1828;-40
2021/07/10 04:11:04;;;;;;;;;;;;;;;22.49;61.46;101001.19;4995808;28;1209;-41
2021/07/10 04:13:34;;;;;;;;;;;;;;;22.69;60.69;100988.41;4995756;28;1988;-41
2021/07/10 04:16:04;;;;;;;;;;;;;;;22.87;60.63;100983.00;5003939;28;1671;-40
2021/07/10 04:18:36;;;;;;;;;;;;;;;22.97;60.58;100980.22;5014296;28;1868;-40
2021/07/10 04:21:07;;;;;;;;;;;;;;;23.08;60.17;100998.03;5008896;28;1928;-40
2021/07/10 04:23:33;;;;;;;;;;;;;;;22.92;60.69;100986.09;5013248;28;1723;-40
2021/07/10 04:26:02;;;;;;;;;;;;;;;22.59;61.50;100985.81;5015731;28;1906;-40
2021/07/10 04:28:30;;;;;;;;;;;;;;;22.56;61.59;100986.13;5013899;28;1768;-40
2021/07/10 04:30:57;;;;;;;;;;;;;;;22.51;61.87;100976.81;5006551;28;1748;-40
2021/07/10 04:33:24;;;;;;;;;;;;;;;22.53;61.55;100982.88;5003501;28;1904;-40
2021/07/10 04:35:52;;;;;;;;;;;;;;;22.62;61.51;101006.19;5013816;28;1654;-40
2021/07/10 04:38:21;;;;;;;;;;;;;;;22.62;61.53;100990.91;5011283;28;1703;-40
2021/07/10 04:40:48;;;;;;;;;;;;;;;22.77;61.26;100988.50;5013761;28;1635;-40
2021/07/10 04:43:17;;;;;;;;;;;;;;;22.81;61.10;100994.44;5006534;28;1907;-41
2021/07/10 04:45:47;;;;;;;;;;;;;;;22.71;61.77;101002.59;4995638;28;1971;-40
2021/07/10 04:48:20;;;;;;;;;;;;;;;22.85;61.19;100995.81;5008584;28;1945;-40
2021/07/10 04:50:46;;;;;;;;;;;;;;;22.95;61.32;100996.56;4998293;28;1750;-41
2021/07/10 04:53:18;;;;;;;;;;;;;;;23.07;60.47;100999.06;4995044;28;1877;-40
2021/07/10 04:55:46;;;;;;;;;;;;;;;22.95;60.66;101001.97;5014126;28;1770;-41
2021/07/10 04:58:16;;;;;;;;;;;;;;;22.91;60.87;101005.97;5012896;28;1975;-41
2021/07/10 05:00:46;;;;;;;;;;;;;;;22.96;60.98;101000.09;4998614;28;1905;-40
2021/07/10 05:03:13;;;;;;;;;;;;;;;22.98;60.95;101014.31;4998550;28;1754;-41
2021/07/10 05:05:40;;;;;;;;;;;;;;;23.25;60.47;101007.94;5004691;28;1914;-41
2021/07/10 05:08:06;;;;;;;;;;;;;;;23.48;59.96;101008.28;5004291;28;1687;-40
2021/07/10 05:10:45;;;;;;;;;;;;;;;23.67;59.63;101000.97;4999572;28;1682;-41
2021/07/10 05:13:14;;;;;;;;;;;;;;;23.88;59.08;100992.50;5009444;28;1744;-41
2021/07/10 05:15:43;;;;;;;;;;;;;;;24.01;59.62;101011.78;5003610;28;1820;-41
2021/07/10 05:18:14;;;;;;;;;;;;;;;24.07;59.51;100992.22;5008410;28;1954;-41
2021/07/10 05:20:41;;;;;;;;;;;;;;;24.13;59.67;100996.13;5006737;28;1804;-42
2021/07/10 05:23:07;;;;;;;;;;;;;;;24.18;58.95;101000.03;4994277;28;1933;-41
2021/07/10 05:25:36;;;;;;;;;;;;;;;24.20;59.61;101000.69;5007607;28;1972;-41
2021/07/10 05:28:09;;;;;;;;;;;;;;;24.18;59.30;100994.63;4997501;28;1820;-41
2021/07/10 05:30:36;;;;;;;;;;;;;;;24.19;59.55;101004.44;5004252;28;1980;-41
2021/07/10 05:33:08;;;;;;;;;;;;;;;24.21;59.49;100997.00;5008419;28;1602;-41
2021/07/10 05:35:44;;;;;;;;;;;;;;;24.27;59.75;101002.75;4998862;28;11632;-40
2021/07/10 05:38:11;;;;;;;;;;;;;;;24.27;60.02;100998.19;5002287;28;1781;-41
2021/07/10 05:40:38;;;;;;;;;;;;;;;24.22;60.60;101008.66;5004941;28;1291;-41
2021/07/10 05:43:23;;;;;;;;;;;;;;;24.18;60.56;101008.13;4998871;28;1919;-41
2021/07/10 05:45:53;;;;;;;;;;;;;;;24.15;60.71;101002.19;4999645;28;1985;-41
2021/07/10 05:48:20;;;;;;;;;;;;;;;24.18;60.69;101004.59;5006530;28;1882;-41
2021/07/10 05:50:47;;;;;;;;;;;;;;;24.21;61.07;101005.13;5006629;28;1740;-41
2021/07/10 05:53:14;;;;;;;;;;;;;;;24.24;61.06;101019.31;5000295;28;1922;-41
2021/07/10 05:55:50;;;;;;;;;;;;;;;24.26;60.90;101028.09;5011809;28;1806;-41
2021/07/10 05:58:17;;;;;;;;;;;;;;;24.26;60.84;101018.13;5012477;28;2255;-41
2021/07/10 06:00:47;;;;;;;;;;;;;;;24.22;61.00;101014.91;5013396;28;1676;-41
2021/07/10 06:03:15;;;;;;;;;;;;;;;24.26;61.63;101012.72;5007271;28;1777;-41
2021/07/10 06:05:45;;;;;;;;;;;;;;;24.28;61.62;101031.47;4997519;28;1907;-42
2021/07/10 06:08:15;;;;;;;;;;;;;;;24.26;61.82;101037.03;5009874;28;1961;-41
2021/07/10 06:10:50;;;;;;;;;;;;;;;24.33;61.45;101019.16;5006836;28;1599;-41
2021/07/10 06:13:17;;;;;;;;;;;;;;;24.34;61.57;101026.25;4999621;28;1721;-41
2021/07/10 06:15:46;;;;;;;;;;;;;;;24.30;61.69;101029.47;5011563;28;1865;-41
2021/07/10 06:18:13;;;;;;;;;;;;;;;24.31;61.56;101036.53;5011964;28;1800;-41
2021/07/10 06:20:52;;;;;;;;;;;;;;;24.29;61.44;101023.22;5009439;28;1782;-42
2021/07/10 06:23:21;;;;;;;;;;;;;;;24.31;61.39;101025.72;4994043;28;1512;-41
2021/07/10 06:25:47;;;;;;;;;;;;;;;24.34;61.52;101036.22;4993489;28;1985;-41
2021/07/10 06:28:18;;;;;;;;;;;;;;;24.36;61.86;101036.91;5006023;28;1880;-42
2021/07/10 06:30:53;;;;;;;;;;;;;;;24.31;61.72;101031.13;5008533;28;2001;-41
2021/07/10 06:33:24;;;;;;;;;;;;;;;24.31;62.15;101025.72;4996988;28;1968;-41
2021/07/10 06:35:54;;;;;;;;;;;;;;;24.31;61.95;101017.63;5011774;28;1515;-41
2021/07/10 06:38:23;;;;;;;;;;;;;;;24.32;61.20;101022.03;5010393;28;1851;-43
2021/07/10 06:40:51;;;;;;;;;;;;;;;24.32;61.06;101022.03;5012474;28;1703;-41
2021/07/10 06:43:19;;;;;;;;;;;;;;;24.37;61.22;101025.06;5005017;28;1834;-42
2021/07/10 06:45:49;;;;;;;;;;;;;;;24.35;61.62;101024.38;5004252;28;2142;-41
2021/07/10 06:48:19;;;;;;;;;;;;;;;24.31;61.92;101020.31;5006097;28;1733;-42
2021/07/10 06:53:31;;;;;;;;;;;;;;;24.36;61.46;101021.53;5006771;28;2230;-41
2021/07/10 06:56:01;;;;;;;;;;;;;;;24.45;61.24;101038.59;4993054;28;1083;-41
2021/07/10 06:58:42;;;;;;;;;;;;;;;24.44;61.69;101026.09;5000925;28;1864;-41
2021/07/10 07:01:11;;;;;;;;;;;;;;;24.45;61.43;101022.38;5000727;28;2022;-41
2021/07/10 07:03:40;;;;;;;;;;;;;;;24.49;61.96;101010.25;5002434;28;1716;-41
2021/07/10 07:06:10;;;;;;;;;;;;;;;24.48;61.38;101015.81;5000397;28;1980;-40
2021/07/10 07:08:46;;;;;;;;;;;;;;;24.49;61.74;101018.38;5006288;28;1746;-40
2021/07/10 07:11:20;;;;;;;;;;;;;;;24.52;61.66;101018.03;5012319;28;1925;-40
2021/07/10 07:13:47;;;;;;;;;;;;;;;24.54;61.91;101016.03;5008480;28;1892;-41
2021/07/10 07:16:15;;;;;;;;;;;;;;;24.54;61.68;101021.44;5006680;28;1611;-40
2021/07/10 07:18:44;;;;;;;;;;;;;;;24.58;61.96;101027.34;5005409;28;1943;-40
2021/07/10 07:21:14;;;;;;;;;;;;;;;24.52;61.73;101004.53;5009994;28;1780;-40
2021/07/10 07:23:46;;;;;;;;;;;;;;;24.59;61.75;101019.09;5010958;28;1694;-41
2021/07/10 07:26:13;;;;;;;;;;;;;;;24.63;61.65;101013.31;5007731;28;1987;-40
2021/07/10 07:28:43;;;;;;;;;;;;;;;24.60;61.31;101012.66;5014710;28;1664;-40
2021/07/10 07:31:09;;;;;;;;;;;;;;;24.61;61.48;101011.66;5012803;28;1784;-40
2021/07/10 07:33:38;;;;;;;;;;;;;;;24.61;61.63;101019.75;5014824;28;1630;-40
2021/07/10 07:36:09;;;;;;;;;;;;;;;24.60;61.63;101007.25;5008644;28;1660;-40
2021/07/10 07:38:36;;;;;;;;;;;;;;;24.60;61.36;101009.94;5013613;28;2312;-40
2021/07/10 07:41:04;;;;;;;;;;;;;;;24.63;61.33;101013.31;5016138;28;1908;-40
2021/07/10 07:43:30;;;;;;;;;;;;;;;24.59;62.03;101002.84;5010854;28;1824;-40
2021/07/10 07:45:57;;;;;;;;;;;;;;;24.61;61.90;101006.25;5003677;28;1979;-40
2021/07/10 07:48:23;;;;;;;;;;;;;;;24.60;61.72;101004.53;5007320;28;2311;-40
2021/07/10 07:50:50;;;;;;;;;;;;;;;24.61;62.45;101010.78;5010818;28;2293;-40
2021/07/10 07:53:19;;;;;;;;;;;;;;;24.63;62.81;101010.63;5013230;28;1653;-40
2021/07/10 07:55:47;;;;;;;;;;;;;;;24.68;62.61;101005.56;5015310;28;1837;-41
2021/07/10 07:58:15;;;;;;;;;;;;;;;24.69;62.76;101018.94;5014670;28;1843;-40
2021/07/10 08:00:41;;;;;;;;;;;;;;;24.63;62.35;101016.03;4999112;28;1819;-41
2021/07/10 08:03:08;;;;;;;;;;;;;;;24.62;62.89;101001.66;5011494;28;1782;-40
2021/07/10 08:05:34;;;;;;;;;;;;;;;24.64;62.94;101006.91;5009930;28;1980;-40
2021/07/10 08:08:01;;;;;;;;;;;;;;;24.64;62.27;101013.16;5011986;28;1863;-40
2021/07/10 08:10:27;;;;;;;;;;;;;;;24.62;62.38;101001.66;5013846;28;1996;-40
2021/07/10 08:12:54;;;;;;;;;;;;;;;24.62;63.11;101004.38;5009448;28;1539;-40
2021/07/10 08:15:23;;;;;;;;;;;;;;;24.65;62.73;101012.16;5010799;28;1484;-40
2021/07/10 08:17:50;;;;;;;;;;;;;;;24.64;62.75;101001.50;5009867;28;1965;-40
2021/07/10 08:20:17;;;;;;;;;;;;;;;24.61;62.99;101006.25;5005304;28;1764;-40
2021/07/10 08:22:44;;;;;;;;;;;;;;;24.59;62.92;101002.84;5003081;28;1799;-40
2021/07/10 08:25:12;;;;;;;;;;;;;;;24.58;62.94;101009.25;5003268;28;1931;-41
2021/07/10 08:27:39;;;;;;;;;;;;;;;24.56;62.34;100997.78;4995761;28;2303;-40
2021/07/10 08:30:06;;;;;;;;;;;;;;;24.57;62.48;100998.59;5010666;28;1781;-40
2021/07/10 08:32:34;;;;;;;;;;;;;;;24.56;62.48;100991.53;5004013;28;1540;-41
2021/07/10 08:35:01;;;;;;;;;;;;;;;24.57;61.96;100999.47;4997253;28;1663;-40
2021/07/10 08:37:27;;;;;;;;;;;;;;;24.58;62.28;101006.56;5003185;28;1629;-40
2021/07/10 08:39:54;;;;;;;;;;;;;;;24.58;61.98;101006.56;5007172;28;1940;-40
2021/07/10 08:42:20;;;;;;;;;;;;;;;24.58;62.51;100995.75;5013998;28;1802;-40
2021/07/10 08:44:50;;;;;;;;;;;;;;;24.58;62.15;100993.03;5003921;28;1712;-40
2021/07/10 08:47:17;;;;;;;;;;;;;;;24.58;62.65;100998.44;5003598;28;1910;-40
2021/07/10 08:49:45;;;;;;;;;;;;;;;24.58;62.55;101003.84;5003035;28;1788;-40
2021/07/10 08:52:12;;;;;;;;;;;;;;;24.59;62.59;101008.28;5003835;28;1810;-40
2021/07/10 08:54:38;;;;;;;;;;;;;;;24.61;63.15;101002.66;5004706;28;1622;-40
2021/07/10 08:57:07;;;;;;;;;;;;;;;24.16;62.68;101002.03;5011702;28;1763;-40
2021/07/10 08:59:34;;;;;;;;;;;;;;;23.13;60.87;100998.44;5007430;28;1824;-40
2021/07/10 09:02:00;;;;;;;;;;;;;;;22.57;60.84;100992.34;5001596;28;1571;-40
2021/07/10 09:04:27;;;;;;;;;;;;;;;22.16;60.50;101008.03;5007305;28;1783;-40
2021/07/10 09:06:54;;;;;;;;;;;;;;;21.74;61.14;100998.59;5001808;28;1903;-40
2021/07/10 09:09:41;;;;;;;;;;;;;;;21.57;60.69;101000.22;5010404;28;1524;-39
2021/07/10 09:12:07;;;;;;;;;;;;;;;21.48;59.53;101006.47;5008559;28;1584;-40
2021/07/10 09:14:34;;;;;;;;;;;;;;;21.35;60.14;101011.31;5008534;28;1874;-40
2021/07/10 09:17:14;;;;;;;;;;;;;;;21.22;60.45;100998.16;5002260;28;1594;-40
2021/07/10 09:19:41;;;;;;;;;;;;;;;21.20;60.11;101002.84;5004403;28;1841;-40
2021/07/10 09:22:08;;;;;;;;;;;;;;;21.19;60.63;101001.16;5004986;28;1917;-40
2021/07/10 09:24:36;;;;;;;;;;;;;;;21.17;60.22;101014.75;5005736;28;1809;-42
2021/07/10 09:27:04;;;;;;;;;;;;;;;21.13;59.90;100980.19;5010629;28;2274;-39
2021/07/10 09:29:36;;;;;;;;;;;;;;;21.13;59.82;100999.91;5008722;28;1935;-39
2021/07/10 09:32:04;;;;;;;;;;;;;;;21.06;59.44;100991.53;5010567;28;1808;-39
2021/07/10 09:34:33;;;;;;;;;;;;;;;21.13;58.65;101001.72;5002711;28;1505;-39
2021/07/10 09:37:00;;;;;;;;;;;;;;;21.34;58.97;100999.69;5003810;28;1675;-39
2021/07/10 09:39:29;;;;;;;;;;;;;;;21.36;58.89;100991.47;5004585;28;1761;-39
2021/07/10 09:41:55;;;;;;;;;;;;;;;21.41;59.78;100999.97;5003660;28;1798;-39
2021/07/10 09:44:22;;;;;;;;;;;;;;;21.49;60.65;101007.31;5001548;28;1944;-40
2021/07/10 09:46:48;;;;;;;;;;;;;;;21.49;61.03;101002.81;5009410;28;1906;-40
2021/07/10 09:49:26;;;;;;;;;;;;;;;21.49;60.27;100986.66;5004693;28;1723;-40
2021/07/10 09:52:03;;;;;;;;;;;;;;;21.41;61.59;100992.75;5009973;28;1806;-41
2021/07/10 09:54:34;;;;;;;;;;;;;;;21.43;61.77;100987.25;5001155;28;1736;-39
2021/07/10 09:57:06;;;;;;;;;;;;;;;21.48;60.88;100978.75;5010413;28;1987;-39
2021/07/10 09:59:35;;;;;;;;;;;;;;;21.50;60.70;100982.13;5006995;28;1818;-39
2021/07/10 10:02:02;;;;;;;;;;;;;;;21.49;61.29;100992.06;5001591;28;1762;-39
2021/07/10 10:04:29;;;;;;;;;;;;;;;21.42;61.13;100978.28;5006387;28;1621;-39
2021/07/10 10:06:56;;;;;;;;;;;;;;;21.70;61.33;100980.22;5007372;28;2483;-40
2021/07/10 10:09:23;;;;;;;;;;;;;;;21.98;61.42;100956.84;5002467;28;1586;-39
2021/07/10 10:11:53;;;;;;;;;;;;;;;22.08;62.75;100965.69;5009340;28;999;-39
2021/07/10 10:14:20;;;;;;;;;;;;;;;22.28;64.21;100976.38;5009437;28;1956;-40
2021/07/10 10:16:50;;;;;;;;;;;;;;;22.39;64.96;100973.47;5011854;28;1805;-39
2021/07/10 10:19:25;;;;;;;;;;;;;;;22.47;64.85;100970.88;5004840;28;1621;-40
2021/07/10 10:21:56;;;;;;;;;;;;;;;22.53;64.97;100964.84;5003390;28;1526;-39
2021/07/10 10:24:24;;;;;;;;;;;;;;;22.58;65.19;100961.69;5006473;28;1644;-39
2021/07/10 10:26:57;;;;;;;;;;;;;;;22.66;66.62;100959.09;5002882;28;1993;-39
2021/07/10 10:29:29;;;;;;;;;;;;;;;22.87;67.19;100966.84;5011717;28;1708;-40
2021/07/10 10:31:58;;;;;;;;;;;;;;;22.89;67.86;100953.19;5007432;28;2280;-38
2021/07/10 10:34:26;;;;;;;;;;;;;;;23.03;68.63;100961.59;5011020;28;1868;-39
2021/07/10 10:36:56;;;;;;;;;;;;;;;23.29;68.42;100957.22;5010811;28;1581;-40
2021/07/10 10:39:37;;;;;;;;;;;;;;;23.31;68.74;100942.56;5010804;28;1980;-40
2021/07/10 10:42:10;;;;;;;;;;;;;;;23.37;68.92;100963.50;5012311;28;1877;-39
2021/07/10 10:44:39;;;;;;;;;;;;;;;23.45;69.47;100943.81;5012469;28;1009;-39
2021/07/10 10:47:15;;;;;;;;;;;;;;;23.50;69.61;100956.84;5011495;28;1977;-40
2021/07/10 10:49:53;;;;;;;;;;;;;;;23.46;69.80;100944.66;4999010;28;2013;-40
2021/07/10 10:52:32;;;;;;;;;;;;;;;23.45;69.82;100948.38;4998481;28;1806;-40
2021/07/10 10:55:22;;;;;;;;;;;;;;;23.44;70.15;100931.34;4996011;28;1874;-39
2021/07/10 10:57:52;;;;;;;;;;;;;;;23.27;69.12;100951.13;5009711;28;1628;-39
2021/07/10 11:00:35;;;;;;;;;;;;;;;23.15;68.79;100962.19;5000447;28;1563;-39
2021/07/10 11:03:29;;;;;;;;;;;;;;;23.10;69.17;100951.03;5006067;28;1820;-39
2021/07/10 11:05:56;;;;;;;;;;;;;;;23.12;68.79;100943.63;5005319;28;1963;-39
2021/07/10 11:08:26;;;;;;;;;;;;;;;23.18;68.75;100925.97;5011127;28;1694;-40
2021/07/10 11:11:15;;;;;;;;;;;;;;;23.26;68.22;100923.31;5011965;28;1511;-39
2021/07/10 11:13:56;;;;;;;;;;;;;;;23.36;67.98;100934.00;5000995;28;2081;-42
2021/07/10 11:16:39;;;;;;;;;;;;;;;23.43;67.55;100935.03;5004255;28;1583;-39
2021/07/10 11:19:09;;;;;;;;;;;;;;;23.49;67.49;100938.94;5004414;28;1903;-39
2021/07/10 11:21:45;;;;;;;;;;;;;;;23.51;67.22;100909.94;4999980;28;1852;-39
2021/07/10 11:24:24;;;;;;;;;;;;;;;23.57;66.99;100929.03;5002289;28;1738;-41
2021/07/10 11:30:08;;;;;;;;;;;;;;;22.98;67.53;100909.97;5007844;28;2261;-42
2021/07/10 11:32:43;;;;;;;;;;;;;;;22.59;67.72;100921.13;5007244;28;2407;-42
2021/07/10 11:35:09;;;;;;;;;;;;;;;22.37;67.86;100905.44;5008918;28;1634;-42
2021/07/10 11:37:42;;;;;;;;;;;;;;;22.25;67.77;100904.81;5007614;28;2122;-43
2021/07/10 11:40:09;;;;;;;;;;;;;;;22.13;67.53;100909.53;5005084;28;1608;-42
2021/07/10 11:42:46;;;;;;;;;;;;;;;22.02;67.28;100898.97;5008453;28;1903;-42
2021/07/10 11:45:31;;;;;;;;;;;;;;;22.06;67.52;100911.13;5004685;28;1775;-42
2021/07/10 11:48:21;;;;;;;;;;;;;;;21.93;66.52;100918.75;5000814;28;1992;-42
2021/07/10 11:50:59;;;;;;;;;;;;;;;21.89;66.69;100893.13;5002033;28;1584;-42
2021/07/10 11:53:26;;;;;;;;;;;;;;;21.93;66.48;100905.28;4999393;28;1613;-42
2021/07/10 11:55:52;;;;;;;;;;;;;;;21.85;66.07;100904.19;5003386;28;1752;-42
2021/07/10 11:58:19;;;;;;;;;;;;;;;21.87;66.36;100897.81;5009923;28;1901;-42
2021/07/10 12:00:46;;;;;;;;;;;;;;;21.83;66.21;100900.81;5005300;28;1815;-42
2021/07/10 12:03:17;;;;;;;;;;;;;;;21.83;65.89;100890.03;5000147;28;1955;-40
2021/07/10 12:05:43;;;;;;;;;;;;;;;21.78;66.33;100889.63;5008771;28;1808;-39
2021/07/10 12:08:11;;;;;;;;;;;;;;;21.82;65.51;100904.47;5011043;28;1906;-40
2021/07/10 12:10:38;;;;;;;;;;;;;;;21.87;65.44;100903.22;5008327;28;2027;-40
2021/07/10 12:13:08;;;;;;;;;;;;;;;21.85;65.14;100901.50;5009796;28;1902;-40
2021/07/10 12:15:35;;;;;;;;;;;;;;;21.81;65.15;100892.03;5009964;28;1716;-40
2021/07/10 12:18:02;;;;;;;;;;;;;;;21.78;64.67;100889.63;5012889;28;1921;-39
2021/07/10 12:20:31;;;;;;;;;;;;;;;21.72;64.79;100884.84;5008236;28;1760;-40
2021/07/10 12:22:58;;;;;;;;;;;;;;;21.65;65.43;100878.41;5005552;28;1816;-40
2021/07/10 12:25:27;;;;;;;;;;;;;;;21.66;64.73;100874.69;5010829;28;1933;-40
2021/07/10 12:27:58;;;;;;;;;;;;;;;21.72;64.72;100878.63;5013113;28;2056;-40
2021/07/10 12:30:38;;;;;;;;;;;;;;;21.66;64.60;100880.06;5012371;28;1704;-40
2021/07/10 12:33:05;;;;;;;;;;;;;;;21.63;64.77;100881.22;5007049;28;1780;-42
2021/07/10 12:35:32;;;;;;;;;;;;;;;21.60;64.09;100857.28;5015271;28;1756;-42
2021/07/10 12:38:08;;;;;;;;;;;;;;;21.62;64.49;100863.38;5007740;28;1583;-42
2021/07/10 12:40:36;;;;;;;;;;;;;;;21.73;64.69;100853.44;5008001;28;1503;-42
2021/07/10 12:43:02;;;;;;;;;;;;;;;21.68;64.30;100867.31;5009382;28;2477;-42
2021/07/10 12:45:30;;;;;;;;;;;;;;;21.80;64.50;100873.34;5003097;28;1819;-43
2021/07/10 12:47:59;;;;;;;;;;;;;;;21.72;64.41;100863.31;5008221;28;1923;-42
2021/07/10 12:50:25;;;;;;;;;;;;;;;21.71;64.02;100856.25;5006126;28;1825;-42
2021/07/10 12:53:05;;;;;;;;;;;;;;;21.67;63.91;100846.78;5000572;28;1649;-43
2021/07/10 12:55:49;;;;;;;;;;;;;;;21.92;63.67;100841.66;5014183;28;1861;-40
2021/07/10 12:58:22;;;;;;;;;;;;;;;22.31;63.27;100830.63;5009786;28;1875;-40
2021/07/10 13:00:48;;;;;;;;;;;;;;;22.67;63.25;100825.16;5011566;28;1751;-40
2021/07/10 13:03:21;;;;;;;;;;;;;;;23.05;63.13;100823.03;5001792;28;1753;-39
2021/07/10 13:05:48;;;;;;;;;;;;;;;23.26;63.78;100836.97;5008712;28;1719;-40
2021/07/10 13:08:15;;;;;;;;;;;;;;;23.43;62.98;100822.50;5003608;28;1985;-40
2021/07/10 13:10:45;;;;;;;;;;;;;;;23.57;62.95;100828.31;5005764;28;1086;-40